Flight Track Log - Related Links

Times and Time Zones

All times are in EDT time to prevent confusion due to time zone crossing. See the AWE710 flight status page for this flight to view local times or setup timezone preferences in your user account.

Time Position Orientation Groundspeed Altitude Reporting Facility
EDT Latitude Longitude Course Direction KTS MPH feet Rate Location/Type
Sun 11:28:53 AM 37.6790 -122.2880 57° Northeast 225 259 2,900  Level FlightAware ADS-B
Sun 11:29:18 AM 37.6940 -122.2590 57° Northeast 233 268 3,700 1,636 Climbing FlightAware ADS-B
Sun 11:29:48 AM 37.7140 -122.2210 56° Northeast 263 303 4,400 1,636 Climbing FlightAware ADS-B
Sun 11:30:13 AM 37.7310 -122.1890 56° Northeast 275 316 5,200 2,250 Climbing FlightAware ADS-B
Sun 11:30:28 AM 37.7420 -122.1670 58° Northeast 279 321 5,900 2,267 Climbing FlightAware ADS-B
Sun 11:30:58 AM 37.7620 -122.1250 59° Northeast 288 331 6,900 2,300 Climbing FlightAware ADS-B
Sun 11:31:28 AM 37.7800 -122.0770 65° Northeast 294 338 8,200 2,400 Climbing FlightAware ADS-B
Sun 11:31:53 AM 37.7900 -122.0400 71° East 295 339 9,100 2,031 Climbing FlightAware ADS-B
Sun 11:32:33 AM 37.8090 -121.9720 71° East 307 353 10,400 1,906 Climbing FlightAware ADS-B
Sun 11:33:18 AM 37.8310 -121.8940 70° East 324 373 11,800 1,412 Climbing FlightAware ADS-B
Sun 11:33:58 AM 37.8520 -121.8180 71° East 357 411 12,400 847 Climbing FlightAware ADS-B
Sun 11:34:43 AM 37.8780 -121.7250 70° East 393 452 13,000 1,000 Climbing FlightAware ADS-B
Sun 11:35:28 AM 37.9050 -121.6260 71° East 414 476 13,900 1,412 Climbing FlightAware ADS-B
Sun 11:36:08 AM 37.9310 -121.5330 70° East 426 490 15,000 1,694 Climbing FlightAware ADS-B
Sun 11:36:53 AM 37.9600 -121.4250 71° East 433 498 16,300 1,765 Climbing FlightAware ADS-B
Sun 11:37:33 AM 37.9860 -121.3330 70° East 437 503 17,500 1,575 Climbing FlightAware ADS-B
Sun 11:38:13 AM 38.0120 -121.2370 71° East 445 512 18,400 1,412 Climbing FlightAware ADS-B
Sun 11:38:58 AM 38.0450 -121.1150 71° East 454 522 19,500 1,200 Climbing FlightAware ADS-B
Sun 11:39:38 AM 38.0710 -121.0150 72° East 468 539 20,100 1,200 Climbing FlightAware ADS-B
Sun 11:40:18 AM 38.0880 -120.9040 79° East 478 550 21,100 1,271 Climbing FlightAware ADS-B
Sun 11:41:03 AM 38.1050 -120.7820 80° East 485 558 21,900 1,125 Climbing FlightAware ADS-B
Sun 11:41:38 AM 38.1190 -120.6770 80° East 491 565 22,600 1,050 Climbing FlightAware ADS-B
Sun 11:42:23 AM 38.1360 -120.5520 80° East 496 571 23,300 988 Climbing FlightAware ADS-B
Sun 11:43:03 AM 38.1500 -120.4400 81° East 501 577 24,000 1,000 Climbing FlightAware ADS-B
Sun 11:43:53 AM 38.1690 -120.3000 80° East 505 581 24,800 867 Climbing FlightAware ADS-B
Sun 11:44:33 AM 38.1840 -120.1810 81° East 512 589 25,300 800 Climbing FlightAware ADS-B
Sun 11:45:08 AM 38.1960 -120.0850 81° East 513 590 25,800 988 Climbing FlightAware ADS-B
Sun 11:45:58 AM 38.2180 -119.9170 80° East 516 594 26,700 867 Climbing FlightAware ADS-B
Sun 11:46:38 AM 38.2330 -119.7970 81° East 521 600 27,100 880 Climbing FlightAware ADS-B
Sun 11:47:13 AM 38.2460 -119.6930 81° East 518 596 27,800 525 Climbing FlightAware ADS-B
Sun 11:47:58 AM 38.2610 -119.5730 81° East 518 596 27,800 933 Level FlightAware ADS-B
Sun 11:48:43 AM 38.2800 -119.4230 81° East 518 596 29,200 1,400 Climbing FlightAware ADS-B
Sun 11:49:28 AM 38.2960 -119.2850 82° East 514 592 29,900 540 Climbing FlightAware ADS-B
Sun 11:50:23 AM 38.3150 -119.1350 81° East 514 592 30,100 126 Climbing FlightAware ADS-B
Sun 11:51:03 AM 38.3270 -119.0330 81° East 514 592 30,100  Level FlightAware ADS-B
Sun 11:51:43 AM 38.3400 -118.9310 81° East 514 592 30,100  Level FlightAware ADS-B
Sun 11:52:13 AM 38.3500 -118.8550 80° East 514 592 30,100  Level FlightAware ADS-B
Sun 11:52:53 AM 38.3620 -118.7530 81° East 514 592 30,100  Level FlightAware ADS-B
Sun 11:53:33 AM 38.3750 -118.6510 81° East 514 592 30,100  Level FlightAware ADS-B
Sun 11:54:13 AM 38.3880 -118.5490 81° East 514 592 30,100  Level FlightAware ADS-B
Sun 11:55:03 AM 38.4030 -118.4220 81° East 514 592 30,100  Level FlightAware ADS-B
Sun 11:55:43 AM 38.4160 -118.3200 81° East 514 592 30,100  Level FlightAware ADS-B
Sun 11:56:23 AM 38.4290 -118.2180 81° East 514 592 30,100  Level FlightAware ADS-B
Sun 11:57:03 AM 38.4410 -118.1160 81° East 514 592 30,100  Level FlightAware ADS-B
Sun 11:57:43 AM 38.4540 -118.0140 81° East 514 592 30,100  Level FlightAware ADS-B
Sun 11:58:33 AM 38.4700 -117.8870 81° East 514 592 30,100  Level FlightAware ADS-B
Sun 11:59:13 AM 38.4820 -117.7850 81° East 514 592 30,100 2,384 Level FlightAware ADS-B
Sun 11:59:46 AM 38.5075 -117.4133 81° East 522 601 33,000 2,719 Climbing Salt Lake Center
Sun 12:00:17 PM 38.5147 -117.3400 83° East 522 601 33,000  Level Oakland Center
Sun 12:00:47 PM 38.5186 -117.2272 87° East 523 602 33,000  Level Salt Lake Center
Sun 12:01:49 PM 38.5142 -117.0394 92° East 523 602 33,000  Level Salt Lake Center
Sun 12:02:19 PM 38.5133 -116.9653 91° East 522 601 33,000  Level Oakland Center
Sun 12:03:20 PM 38.5092 -116.7772 92° East 524 603 33,000  Level Oakland Center
Sun 12:04:22 PM 38.5044 -116.5911 92° East 523 602 33,000  Level Oakland Center
Sun 12:04:54 PM 38.5014 -116.4781 92° East 525 604 33,000  Level Salt Lake Center
Sun 12:05:23 PM 38.4983 -116.3656 92° East 526 605 33,000  Level Oakland Center
Sun 12:06:24 PM 38.4928 -116.1792 92° East 526 605 33,000  Level Oakland Center
Sun 12:06:57 PM 38.4908 -116.1033 92° East 529 609 33,000  Level Salt Lake Center
Sun 12:07:59 PM 38.4861 -115.9169 92° East 527 606 33,000  Level Salt Lake Center
Sun 12:09:00 PM 38.4783 -115.6939 92° East 524 603 33,000  Level Salt Lake Center
Sun 12:10:02 PM 38.4722 -115.5081 92° East 524 603 33,000  Level Salt Lake Center
Sun 12:11:04 PM 38.4650 -115.3122 93° East 521 600 33,000  Level Salt Lake Center
Sun 12:12:05 PM 38.4908 -115.1611 78° East 520 598 33,000  Level Salt Lake Center
Sun 12:13:07 PM 38.5325 -114.9481 76° East 515 593 33,000  Level Salt Lake Center
Sun 12:14:09 PM 38.5683 -114.7692 76° East 518 596 33,000  Level Salt Lake Center
Sun 12:15:10 PM 38.6028 -114.5892 76° East 520 598 33,000  Level Salt Lake Center
Sun 12:16:12 PM 38.6375 -114.4100 76° East 519 597 33,000  Level Salt Lake Center
Sun 12:17:14 PM 38.6722 -114.2294 76° East 521 600 33,000  Level Salt Lake Center
Sun 12:18:15 PM 38.7050 -114.0483 77° East 521 600 33,000  Level Salt Lake Center
Sun 12:19:17 PM 38.7400 -113.8686 76° East 521 600 33,000  Level Salt Lake Center
Sun 12:20:19 PM 38.7789 -113.6511 77° East 521 600 33,000  Level Salt Lake Center
Sun 12:21:20 PM 38.8125 -113.4708 76° East 520 598 33,000  Level Salt Lake Center
Sun 12:22:22 PM 38.8447 -113.2894 77° East 521 600 33,000  Level Salt Lake Center
Sun 12:23:24 PM 38.8781 -113.1075 77° East 522 601 33,000  Level Salt Lake Center
Sun 12:24:26 PM 38.9106 -112.9244 77° East 524 603 33,000  Level Salt Lake Center
Sun 12:29:48 PM 39.0820 -111.9200 77° East 527 606 33,000  Level FlightAware ADS-B
Sun 12:30:23 PM 39.0990 -111.8190 78° East 527 606 33,000  Level FlightAware ADS-B
Sun 12:31:08 PM 39.1190 -111.6960 78° East 527 606 33,000  Level FlightAware ADS-B
Sun 12:31:48 PM 39.1370 -111.5920 77° East 527 606 33,000  Level FlightAware ADS-B
Sun 12:32:28 PM 39.1540 -111.4870 78° East 527 606 33,000  Level FlightAware ADS-B
Sun 12:33:18 PM 39.1750 -111.3560 78° East 527 606 33,000  Level FlightAware ADS-B
Sun 12:33:58 PM 39.1930 -111.2520 77° East 527 606 33,000  Level FlightAware ADS-B
Sun 12:34:38 PM 39.2100 -111.1470 78° East 527 606 33,000  Level FlightAware ADS-B
Sun 12:35:18 PM 39.2270 -111.0420 78° East 527 606 33,000  Level FlightAware ADS-B
Sun 12:35:58 PM 39.2440 -110.9380 78° East 527 606 33,000  Level FlightAware ADS-B
Sun 12:36:48 PM 39.2660 -110.8070 78° East 527 606 33,000  Level FlightAware ADS-B
Sun 12:37:28 PM 39.2830 -110.7020 78° East 527 606 33,000  Level FlightAware ADS-B
Sun 12:38:08 PM 39.3000 -110.5970 78° East 527 606 33,000  Level FlightAware ADS-B
Sun 12:38:48 PM 39.3440 -110.2790 80° East 527 606 33,000  Level FlightAware ADS-B
Sun 12:39:33 PM 39.3650 -110.1430 79° East 528 608 33,000  Level FlightAware ADS-B
Sun 12:40:13 PM 39.3850 -110.0100 79° East 527 606 33,000  Level FlightAware ADS-B
Sun 12:40:58 PM 39.4060 -109.8720 79° East 525 604 33,000  Level FlightAware ADS-B
Sun 12:41:43 PM 39.4260 -109.7340 79° East 525 604 33,000  Level FlightAware ADS-B
Sun 12:42:28 PM 39.4400 -109.6380 79° East 525 604 33,000  Level FlightAware ADS-B
Sun 12:42:58 PM 39.4590 -109.5100 79° East 524 603 33,000  Level FlightAware ADS-B
Sun 12:43:48 PM 39.4820 -109.3510 79° East 524 603 33,000  Level FlightAware ADS-B
Sun 12:44:43 PM 39.5050 -109.1850 80° East 525 604 33,000  Level FlightAware ADS-B
Sun 12:45:28 PM 39.5250 -109.0430 80° East 528 608 33,000  Level FlightAware ADS-B
Sun 12:46:08 PM 39.5430 -108.9130 80° East 531 611 33,000 71 Level FlightAware ADS-B
Sun 12:46:53 PM 39.5620 -108.7780 80° East 531 611 33,100 86 Climbing FlightAware ADS-B
Sun 12:47:18 PM 39.5730 -108.6980 80° East 530 610 33,100  Level FlightAware ADS-B
Sun 12:48:13 PM 39.5960 -108.5300 80° East 526 605 33,100 -63 Level FlightAware ADS-B
Sun 12:48:53 PM 39.6120 -108.4100 80° East 524 603 33,000 -71 Descending FlightAware ADS-B
Sun 12:49:38 PM 39.6320 -108.2660 80° East 521 600 33,000  Level FlightAware ADS-B
Sun 12:50:23 PM 39.6510 -108.1210 80° East 520 598 33,000  Level FlightAware ADS-B
Sun 12:51:03 PM 39.6670 -108.0010 80° East 518 596 33,000  Level FlightAware ADS-B
Sun 12:51:43 PM 39.6830 -107.8780 80° East 519 597 33,000  Level FlightAware ADS-B
Sun 12:52:28 PM 39.7000 -107.7460 80° East 520 598 33,000  Level FlightAware ADS-B
Sun 12:53:13 PM 39.7180 -107.6070 80° East 521 600 33,000  Level FlightAware ADS-B
Sun 12:53:53 PM 39.7340 -107.4760 81° East 523 602 33,000 75 Level FlightAware ADS-B
Sun 12:54:33 PM 39.7500 -107.3520 80° East 522 601 33,100 75 Climbing FlightAware ADS-B
Sun 12:55:13 PM 39.7660 -107.2280 80° East 519 597 33,100  Level FlightAware ADS-B
Sun 12:55:31 PM 39.7741 -107.1590 81° East 518 596 33,100 -122 Level FlightAware ADS-B
Sun 12:56:02 PM 39.7854 -107.0660 81° East 517 595 33,000 -98 Descending FlightAware ADS-B
Sun 12:56:32 PM 39.7969 -106.9730 81° East 516 594 33,000  Level FlightAware ADS-B
Sun 12:57:03 PM 39.8084 -106.8780 81° East 515 593 33,000  Level FlightAware ADS-B
Sun 12:57:36 PM 39.8206 -106.7770 81° East 513 590 33,000  Level FlightAware ADS-B
Sun 12:58:25 PM 39.8381 -106.6300 81° East 512 589 33,000  Level FlightAware ADS-B
Sun 12:58:57 PM 39.8497 -106.5320 81° East 511 588 33,000  Level FlightAware ADS-B
Sun 12:59:28 PM 39.8600 -106.4430 81° East 510 587 33,000  Level FlightAware ADS-B
Sun 12:59:43 PM 39.8662 -106.3920 81° East 510 587 33,000  Level FlightAware ADS-B
Sun 01:00:14 PM 39.8770 -106.2990 81° East 509 586 33,000  Level FlightAware ADS-B
Sun 01:00:47 PM 39.8884 -106.2000 81° East 507 583 33,000  Level FlightAware ADS-B
Sun 01:01:18 PM 39.8990 -106.1070 82° East 504 580 33,000  Level FlightAware ADS-B
Sun 01:01:56 PM 39.9120 -105.9920 82° East 503 579 33,000  Level FlightAware ADS-B
Sun 01:02:27 PM 39.9226 -105.8990 82° East 501 577 33,000  Level FlightAware ADS-B
Sun 01:02:57 PM 39.9326 -105.8090 82° East 500 575 33,000  Level FlightAware ADS-B
Sun 01:03:30 PM 39.9434 -105.7110 82° East 500 575 33,000 91 Level FlightAware ADS-B
Sun 01:04:03 PM 39.9541 -105.6130 82° East 498 573 33,100  Climbing FlightAware ADS-B
Sun 01:04:33 PM 39.9640 -105.5240 82° East 502 578 33,000 -98 Descending FlightAware ADS-B
Sun 01:05:04 PM 39.9738 -105.4320 82° East 497 572 33,000  Level FlightAware ADS-B
Sun 01:05:44 PM 39.9867 -105.3120 82° East 502 578 33,000  Level FlightAware ADS-B
Sun 01:06:19 PM 39.9976 -105.2100 82° East 504 580 33,000  Level FlightAware ADS-B
Sun 01:06:49 PM 40.0075 -105.1160 82° East 512 589 33,000  Level FlightAware ADS-B
Sun 01:07:20 PM 40.0176 -105.0210 82° East 515 593 33,000  Level FlightAware ADS-B
Sun 01:07:51 PM 40.0272 -104.9280 82° East 515 593 33,000  Level FlightAware ADS-B
Sun 01:08:21 PM 40.0368 -104.8360 82° East 516 594 33,000  Level FlightAware ADS-B
Sun 01:08:51 PM 40.0462 -104.7430 82° East 517 595 33,000  Level FlightAware ADS-B
Sun 01:09:21 PM 40.0558 -104.6490 82° East 521 600 33,000  Level FlightAware ADS-B
Sun 01:09:51 PM 40.0653 -104.5550 82° East 520 598 33,000 100 Level FlightAware ADS-B
Sun 01:10:21 PM 40.0746 -104.4610 83° East 520 598 33,100 98 Climbing FlightAware ADS-B
Sun 01:10:52 PM 40.0840 -104.3670 83° East 518 596 33,100 -95 Level FlightAware ADS-B
Sun 01:11:24 PM 40.0937 -104.2680 83° East 517 595 33,000 -95 Descending FlightAware ADS-B
Sun 01:11:55 PM 40.1033 -104.1700 83° East 517 595 33,000  Level FlightAware ADS-B
Sun 01:12:26 PM 40.1125 -104.0740 83° East 516 594 33,000  Level FlightAware ADS-B
Sun 01:12:56 PM 40.1214 -103.9810 83° East 516 594 33,000  Level FlightAware ADS-B
Sun 01:13:27 PM 40.1304 -103.8870 83° East 515 593 33,000  Level FlightAware ADS-B
Sun 01:13:57 PM 40.1391 -103.7940 83° East 514 592 33,000  Level FlightAware ADS-B
Sun 01:14:29 PM 40.1482 -103.6970 83° East 513 590 33,000  Level FlightAware ADS-B
Sun 01:14:59 PM 40.1569 -103.6030 83° East 514 592 33,000  Level FlightAware ADS-B
Sun 01:15:32 PM 40.1660 -103.5030 83° East 513 590 33,000  Level FlightAware ADS-B
Sun 01:16:02 PM 40.1744 -103.4100 83° East 511 588 33,000  Level FlightAware ADS-B
Sun 01:16:33 PM 40.1827 -103.3170 83° East 510 587 33,000  Level FlightAware ADS-B
Sun 01:17:03 PM 40.1910 -103.2240 83° East 508 585 33,000  Level FlightAware ADS-B
Sun 01:17:34 PM 40.1994 -103.1280 83° East 509 586 33,000 190 Level FlightAware ADS-B
Sun 01:18:06 PM 40.2101 -103.0320 82° East 509 586 33,200 387 Climbing FlightAware ADS-B
Sun 01:18:36 PM 40.2208 -102.9400 81° East 511 588 33,400 500 Climbing FlightAware ADS-B
Sun 01:19:06 PM 40.2315 -102.8480 81° East 513 590 33,700 492 Climbing FlightAware ADS-B
Sun 01:19:37 PM 40.2422 -102.7550 81° East 515 593 33,900 571 Climbing FlightAware ADS-B
Sun 01:20:09 PM 40.2534 -102.6570 81° East 513 590 34,300 677 Climbing FlightAware ADS-B
Sun 01:20:39 PM 40.2642 -102.5620 81° East 513 590 34,600 492 Climbing FlightAware ADS-B
Sun 01:21:10 PM 40.2749 -102.4670 82° East 513 590 34,800 393 Climbing FlightAware ADS-B
Sun 01:21:40 PM 40.2852 -102.3750 82° East 515 593 35,000 194 Climbing FlightAware ADS-B
Sun 01:22:12 PM 40.2960 -102.2770 82° East 515 593 35,000  Level FlightAware ADS-B
Sun 01:22:42 PM 40.3062 -102.1840 82° East 516 594 35,000  Level FlightAware ADS-B
Sun 01:23:13 PM 40.3166 -102.0900 82° East 515 593 35,000  Level FlightAware ADS-B
Sun 01:23:43 PM 40.3266 -101.9980 82° East 517 595 35,000  Level FlightAware ADS-B
Sun 01:24:13 PM 40.3369 -101.9030 82° East 518 596 35,000  Level FlightAware ADS-B
Sun 01:24:44 PM 40.3471 -101.8060 82° East 518 596 35,000  Level FlightAware ADS-B
Sun 01:25:15 PM 40.3570 -101.7120 82° East 518 596 35,000  Level FlightAware ADS-B
Sun 01:25:45 PM 40.3669 -101.6180 82° East 518 596 35,000 98 Level FlightAware ADS-B
Sun 01:26:16 PM 40.3768 -101.5230 82° East 518 596 35,100 98 Climbing FlightAware ADS-B
Sun 01:26:46 PM 40.3866 -101.4280 82° East 516 594 35,100  Level FlightAware ADS-B
Sun 01:27:16 PM 40.3962 -101.3350 82° East 515 593 35,100 -98 Level FlightAware ADS-B
Sun 01:27:47 PM 40.4059 -101.2400 82° East 513 590 35,000 -97 Descending FlightAware ADS-B
Sun 01:28:18 PM 40.4154 -101.1460 82° East 509 586 35,000  Level FlightAware ADS-B
Sun 01:29:18 PM 40.4314 -100.9775 82° East 509 586 35,000  Level Denver Center
Sun 01:30:20 PM 40.4486 -100.8033 83° East 507 583 35,000  Level Denver Center
Sun 01:31:22 PM 40.4683 -100.6006 83° East 507 583 35,000  Level Denver Center
Sun 01:32:24 PM 40.4850 -100.4247 83° East 510 587 35,000 48 Level Denver Center
Sun 01:33:26 PM 40.5044 -100.2181 83° East 513 590 35,100 48 Climbing Denver Center
Sun 01:34:28 PM 40.5206 -100.0378 83° East 518 596 35,100 -48 Level Denver Center
Sun 01:35:30 PM 40.5392 -99.8292 83° East 517 595 35,000 -48 Descending Denver Center
Sun 01:36:32 PM 40.5564 -99.6419 83° East 518 596 35,000  Level Denver Center
Sun 01:37:34 PM 40.5725 -99.4503 84° East 525 604 35,000  Level Denver Center
Sun 01:38:48 PM 40.5894 -99.2586 83° East 529 609 35,000  Level Denver Center
Sun 01:39:50 PM 40.6111 -98.9925 84° East 527 606 35,000  Level Denver Center
Sun 01:40:05 PM 40.6136 -98.9561 85° East 526 605 35,000  Level Minneapolis Center
Sun 01:41:06 PM 40.6289 -98.7675 84° East 525 604 35,000  Level Minneapolis Center
Sun 01:42:08 PM 40.6444 -98.5786 84° East 524 603 35,000  Level Minneapolis Center
Sun 01:43:10 PM 40.6581 -98.3900 85° East 523 602 35,000  Level Minneapolis Center
Sun 01:44:24 PM 40.6728 -98.1997 84° East 524 603 35,000  Level Minneapolis Center
Sun 01:45:26 PM 40.6911 -97.9353 85° East 521 600 35,000  Level Minneapolis Center
Sun 01:46:28 PM 40.7047 -97.7467 85° East 519 597 35,000  Level Minneapolis Center
Sun 01:47:29 PM 40.7183 -97.5586 84° East 518 596 35,000  Level Minneapolis Center
Sun 01:48:31 PM 40.7314 -97.3689 85° East 521 600 35,000  Level Minneapolis Center
Sun 01:49:45 PM 40.7458 -97.1567 85° East 521 600 35,000  Level Minneapolis Center
Sun 01:50:47 PM 40.7592 -96.9283 86° East 521 600 35,000  Level Minneapolis Center
Sun 01:51:49 PM 40.7719 -96.7397 85° East 520 598 35,000  Level Minneapolis Center
Sun 01:52:51 PM 40.7833 -96.5492 85° East 523 602 35,000  Level Minneapolis Center
Sun 01:53:52 PM 40.7939 -96.3592 86° East 523 602 35,000  Level Minneapolis Center
Sun 01:54:54 PM 40.8056 -96.1692 85° East 525 604 35,000  Level Minneapolis Center
Sun 02:00:38 PM 40.8600 -95.1350 85° East 523 602 35,000  Level FlightAware ADS-B
Sun 02:01:33 PM 40.8680 -94.9650 86° East 523 602 35,000  Level FlightAware ADS-B
Sun 02:02:13 PM 40.8740 -94.8570 86° East 523 602 35,000  Level FlightAware ADS-B
Sun 02:02:48 PM 40.8830 -94.6300 87° East 522 601 35,000  Level FlightAware ADS-B
Sun 02:03:33 PM 40.8890 -94.5030 86° East 522 601 35,000  Level FlightAware ADS-B
Sun 02:04:23 PM 40.8960 -94.3680 86° East 522 601 35,000  Level FlightAware ADS-B
Sun 02:04:53 PM 40.8990 -94.2390 88° East 520 598 35,000  Level FlightAware ADS-B
Sun 02:05:43 PM 40.9050 -94.0710 87° East 520 598 35,000  Level FlightAware ADS-B
Sun 02:06:28 PM 40.9100 -93.9400 87° East 520 598 35,000  Level FlightAware ADS-B
Sun 02:07:08 PM 40.9150 -93.8320 86° East 520 598 35,000  Level FlightAware ADS-B
Sun 02:07:48 PM 40.9190 -93.7240 87° East 520 598 35,000  Level FlightAware ADS-B
Sun 02:08:28 PM 40.9230 -93.6150 87° East 520 598 35,000  Level FlightAware ADS-B
Sun 02:09:08 PM 40.9270 -93.5070 87° East 520 598 35,000  Level FlightAware ADS-B
Sun 02:09:58 PM 40.9330 -93.2610 88° East 525 604 35,000  Level FlightAware ADS-B
Sun 02:10:33 PM 40.9370 -93.1490 87° East 525 604 35,000  Level FlightAware ADS-B
Sun 02:11:23 PM 40.9410 -92.9950 88° East 525 604 35,000  Level FlightAware ADS-B
Sun 02:12:03 PM 40.9450 -92.8680 88° East 526 605 35,000  Level FlightAware ADS-B
Sun 02:12:38 PM 40.9480 -92.7580 88° East 526 605 35,000  Level FlightAware ADS-B
Sun 02:13:23 PM 40.9520 -92.6100 88° East 526 605 35,000  Level FlightAware ADS-B
Sun 02:13:58 PM 40.9550 -92.4910 88° East 526 605 35,000  Level FlightAware ADS-B
Sun 02:14:58 PM 40.9590 -92.3250 88° East 525 604 35,000  Level FlightAware ADS-B
Sun 02:15:38 PM 40.9620 -92.1730 88° East 523 602 35,000  Level FlightAware ADS-B
Sun 02:16:28 PM 40.9660 -92.0070 88° East 523 602 35,000  Level FlightAware ADS-B
Sun 02:17:23 PM 40.9690 -91.8400 89° East 522 601 35,000  Level FlightAware ADS-B
Sun 02:17:58 PM 40.9710 -91.7210 89° East 521 600 35,000  Level FlightAware ADS-B
Sun 02:18:43 PM 40.9740 -91.5790 88° East 521 600 35,000  Level FlightAware ADS-B
Sun 02:19:38 PM 40.9760 -91.4050 89° East 520 598 35,000  Level FlightAware ADS-B
Sun 02:20:33 PM 40.9790 -91.2280 89° East 519 597 35,000  Level FlightAware ADS-B
Sun 02:21:08 PM 40.9800 -91.1250 89° East 519 597 35,000  Level FlightAware ADS-B
Sun 02:21:58 PM 40.9820 -90.9630 89° East 520 598 35,000  Level FlightAware ADS-B
Sun 02:22:38 PM 40.9840 -90.8380 89° East 519 597 35,000  Level FlightAware ADS-B
Sun 02:23:23 PM 40.9850 -90.6950 89° East 518 596 35,000  Level FlightAware ADS-B
Sun 02:24:03 PM 40.9860 -90.5620 89° East 518 596 35,000  Level FlightAware ADS-B
Sun 02:24:43 PM 40.9870 -90.4370 89° East 517 595 35,000  Level FlightAware ADS-B
Sun 02:25:28 PM 40.9880 -90.2990 89° East 518 596 35,000  Level FlightAware ADS-B
Sun 02:26:08 PM 40.9890 -90.1720 89° East 520 598 35,000  Level FlightAware ADS-B
Sun 02:26:53 PM 40.9890 -90.0230 90° East 523 602 35,000  Level FlightAware ADS-B
Sun 02:27:33 PM 40.9900 -89.8960 89° East 524 603 35,000 75 Level FlightAware ADS-B
Sun 02:28:13 PM 40.9900 -89.7670 90° East 523 602 35,100  Climbing FlightAware ADS-B
Sun 02:28:58 PM 40.9900 -89.6250 90° East 523 602 35,000 -92 Descending FlightAware ADS-B
Sun 02:29:18 PM 40.9900 -89.5670 90° East 523 602 35,000  Level FlightAware ADS-B
Sun 02:30:08 PM 40.9900 -89.4040 90° East 525 604 35,000  Level FlightAware ADS-B
Sun 02:30:48 PM 40.9890 -89.2770 91° East 526 605 35,000  Level FlightAware ADS-B
Sun 02:31:33 PM 40.9890 -89.1280 90° East 526 605 35,000  Level FlightAware ADS-B
Sun 02:32:13 PM 40.9880 -89.0010 91° East 526 605 35,000  Level FlightAware ADS-B
Sun 02:32:53 PM 40.9870 -88.8740 91° East 526 605 35,000  Level FlightAware ADS-B
Sun 02:33:38 PM 40.9860 -88.7340 90° East 524 603 35,000  Level FlightAware ADS-B
Sun 02:34:18 PM 40.9850 -88.6070 91° East 521 600 35,000  Level FlightAware ADS-B
Sun 02:35:03 PM 40.9840 -88.4600 90° East 523 602 35,000  Level FlightAware ADS-B
Sun 02:35:43 PM 40.9820 -88.3320 91° East 523 602 35,000  Level FlightAware ADS-B
Sun 02:36:23 PM 40.9810 -88.2030 91° East 525 604 35,000  Level FlightAware ADS-B
Sun 02:37:08 PM 40.9790 -88.0710 91° East 526 605 35,000  Level FlightAware ADS-B
Sun 02:37:48 PM 40.9770 -87.9340 91° East 525 604 35,000  Level FlightAware ADS-B
Sun 02:38:33 PM 40.9750 -87.7850 91° East 526 605 35,000  Level FlightAware ADS-B
Sun 02:39:13 PM 40.9730 -87.6550 91° East 526 605 35,000  Level FlightAware ADS-B
Sun 02:39:53 PM 40.9700 -87.5240 92° East 526 605 35,000  Level FlightAware ADS-B
Sun 02:40:38 PM 40.9680 -87.3830 91° East 526 605 35,000  Level FlightAware ADS-B
Sun 02:41:18 PM 40.9650 -87.2590 92° East 527 606 35,000  Level FlightAware ADS-B
Sun 02:42:03 PM 40.9620 -87.1080 91° East 527 606 35,000  Level FlightAware ADS-B
Sun 02:42:43 PM 40.9590 -86.9880 92° East 528 608 35,000  Level FlightAware ADS-B
Sun 02:43:23 PM 40.9560 -86.8520 92° East 528 608 35,000  Level FlightAware ADS-B
Sun 02:44:08 PM 40.9530 -86.7070 92° East 529 609 35,000  Level FlightAware ADS-B
Sun 02:44:48 PM 40.9490 -86.5760 92° East 531 611 35,000  Level FlightAware ADS-B
Sun 02:45:18 PM 40.9460 -86.4780 92° East 531 611 35,000  Level FlightAware ADS-B
Sun 02:46:03 PM 40.9430 -86.3380 92° East 531 611 35,000  Level FlightAware ADS-B
Sun 02:46:43 PM 40.9390 -86.2090 92° East 528 608 35,000  Level FlightAware ADS-B
Sun 02:47:23 PM 40.9350 -86.0730 92° East 525 604 35,000  Level FlightAware ADS-B
Sun 02:48:08 PM 40.9300 -85.9330 93° East 522 601 35,000  Level FlightAware ADS-B
Sun 02:48:43 PM 40.9270 -85.8200 92° East 522 601 35,000  Level FlightAware ADS-B
Sun 02:49:28 PM 40.9220 -85.6790 93° East 521 600 35,000  Level FlightAware ADS-B
Sun 02:49:58 PM 40.9190 -85.5820 92° East 520 598 35,000  Level FlightAware ADS-B
Sun 02:50:43 PM 40.9150 -85.4550 92° East 520 598 35,000  Level FlightAware ADS-B
Sun 02:51:23 PM 40.9090 -85.3100 93° East 520 598 35,000  Level FlightAware ADS-B
Sun 02:52:03 PM 40.9050 -85.1960 93° East 520 598 35,000  Level FlightAware ADS-B
Sun 02:52:38 PM 40.9000 -85.0870 93° East 521 600 35,000  Level FlightAware ADS-B
Sun 02:53:43 PM 40.8910 -84.8690 93° East 521 600 35,000  Level FlightAware ADS-B
Sun 02:54:23 PM 40.8860 -84.7420 93° East 520 598 35,000  Level FlightAware ADS-B
Sun 02:55:08 PM 40.8800 -84.5970 93° East 521 600 35,000  Level FlightAware ADS-B
Sun 02:55:48 PM 40.8740 -84.4690 94° East 522 601 35,000  Level FlightAware ADS-B
Sun 02:56:33 PM 40.8680 -84.3300 93° East 523 602 35,000  Level FlightAware ADS-B
Sun 02:57:13 PM 40.8620 -84.2000 93° East 524 603 35,000  Level FlightAware ADS-B
Sun 02:57:53 PM 40.8550 -84.0690 94° East 525 604 35,000  Level FlightAware ADS-B
Sun 02:58:38 PM 40.8490 -83.9300 93° East 526 605 35,000  Level FlightAware ADS-B
Sun 02:59:18 PM 40.8400 -83.8000 95° East 526 605 35,000  Level FlightAware ADS-B
Sun 02:59:58 PM 40.8290 -83.6700 96° East 527 606 35,000  Level FlightAware ADS-B
Sun 03:00:43 PM 40.8170 -83.5260 96° East 528 608 35,000  Level FlightAware ADS-B
Sun 03:01:23 PM 40.8060 -83.3960 96° East 529 609 35,000  Level FlightAware ADS-B
Sun 03:02:08 PM 40.7930 -83.2560 97° East 528 608 35,000  Level FlightAware ADS-B
Sun 03:02:48 PM 40.7820 -83.1280 96° East 528 608 35,000  Level FlightAware ADS-B
Sun 03:03:33 PM 40.7690 -82.9820 97° East 528 608 35,000  Level FlightAware ADS-B
Sun 03:04:13 PM 40.7580 -82.8580 97° East 527 606 35,000  Level FlightAware ADS-B
Sun 03:04:53 PM 40.7450 -82.7250 97° East 526 605 35,000  Level FlightAware ADS-B
Sun 03:05:38 PM 40.7320 -82.5850 97° East 527 606 35,000  Level FlightAware ADS-B
Sun 03:06:03 PM 40.7250 -82.5080 97° East 528 608 35,000  Level FlightAware ADS-B
Sun 03:06:48 PM 40.7110 -82.3640 97° East 528 608 35,000  Level FlightAware ADS-B
Sun 03:07:28 PM 40.6990 -82.2400 97° East 528 608 35,000  Level FlightAware ADS-B
Sun 03:08:08 PM 40.6860 -82.1080 97° East 529 609 35,000  Level FlightAware ADS-B
Sun 03:08:53 PM 40.6720 -81.9620 97° East 527 606 35,000  Level FlightAware ADS-B
Sun 03:09:33 PM 40.6600 -81.8390 97° East 525 604 35,000  Level FlightAware ADS-B
Sun 03:10:13 PM 40.6470 -81.7120 98° East 524 603 35,000  Level FlightAware ADS-B
Sun 03:10:58 PM 40.6320 -81.5670 98° East 524 603 35,000  Level FlightAware ADS-B
Sun 03:11:38 PM 40.6190 -81.4420 98° East 523 602 35,000  Level FlightAware ADS-B
Sun 03:12:23 PM 40.6040 -81.2970 98° East 523 602 35,000  Level FlightAware ADS-B
Sun 03:12:58 PM 40.5920 -81.1890 98° East 523 602 35,000  Level FlightAware ADS-B
Sun 03:13:38 PM 40.5790 -81.0640 98° East 525 604 35,000  Level FlightAware ADS-B
Sun 03:14:08 PM 40.5690 -80.9700 98° East 525 604 35,000  Level FlightAware ADS-B
Sun 03:14:48 PM 40.5550 -80.8430 98° East 526 605 35,000  Level FlightAware ADS-B
Sun 03:15:28 PM 40.5410 -80.7150 98° East 526 605 35,000  Level FlightAware ADS-B
Sun 03:16:13 PM 40.5250 -80.5720 98° East 528 608 35,000  Level FlightAware ADS-B
Sun 03:16:58 PM 40.5090 -80.4330 99° East 528 608 35,000  Level FlightAware ADS-B
Sun 03:17:38 PM 40.4950 -80.3030 98° East 529 609 35,000  Level FlightAware ADS-B
Sun 03:18:18 PM 40.4800 -80.1760 99° East 530 610 35,000  Level FlightAware ADS-B
Sun 03:19:03 PM 40.4630 -80.0340 99° East 532 612 35,000  Level FlightAware ADS-B
Sun 03:19:38 PM 40.4500 -79.9200 98° East 532 612 35,000  Level FlightAware ADS-B
Sun 03:20:18 PM 40.4350 -79.7960 99° East 532 612 35,000  Level FlightAware ADS-B
Sun 03:20:58 PM 40.4200 -79.6650 99° East 532 612 35,000  Level FlightAware ADS-B
Sun 03:21:43 PM 40.4030 -79.5270 99° East 532 612 35,000  Level FlightAware ADS-B
Sun 03:22:28 PM 40.3850 -79.3820 99° East 35,000  Level FlightAware ADS-B
Sun 03:23:43 PM 40.3570 -79.1550 99° East 534 615 35,000  Level FlightAware ADS-B
Sun 03:24:28 PM 40.3380 -79.0040 99° East 537 618 35,000  Level FlightAware ADS-B
Sun 03:25:13 PM 40.3210 -78.8610 99° East 539 620 35,000  Level FlightAware ADS-B
Sun 03:25:53 PM 40.3170 -78.7350 92° East 543 625 35,000  Level FlightAware ADS-B
Sun 03:26:18 PM 40.3160 -78.6490 91° East 542 624 35,000  Level FlightAware ADS-B
Sun 03:27:03 PM 40.3160 -78.5100 90° East 541 623 35,000 -494 Level FlightAware ADS-B
Sun 03:27:43 PM 40.3150 -78.3800 91° East 535 616 34,300 -1,425 Descending FlightAware ADS-B
Sun 03:28:23 PM 40.3150 -78.2540 90° East 535 616 33,100 -2,400 Descending FlightAware ADS-B
Sun 03:29:18 PM 40.3140 -78.0750 90° East 533 613 30,500 -1,964 Descending FlightAware ADS-B
Sun 03:30:13 PM 40.3140 -78.1250 270° West 533 613 29,500 -1,326 Descending FlightAware ADS-B
Sun 03:30:53 PM 40.3110 -77.7770 91° East 476 548 28,400 -1,600 Descending FlightAware ADS-B
Sun 03:31:28 PM 40.3100 -77.6850 91° East 472 543 27,500 -1,933 Descending FlightAware ADS-B
Sun 03:32:23 PM 40.3090 -77.5270 90° East 460 529 25,500 -1,832 Descending FlightAware ADS-B
Sun 03:33:03 PM 40.3070 -77.4170 91° East 447 514 24,600 -1,520 Descending FlightAware ADS-B
Sun 03:33:38 PM 40.3060 -77.3180 91° East 435 501 23,600 -1,765 Descending FlightAware ADS-B
Sun 03:34:28 PM 40.3040 -77.1820 91° East 425 489 22,100 -1,725 Descending FlightAware ADS-B
Sun 03:34:58 PM 40.3030 -77.1070 91° East 419 482 21,300 -1,725 Descending FlightAware ADS-B
Sun 03:35:48 PM 40.2830 -76.9850 102° East 405 466 19,800 -1,667 Descending FlightAware ADS-B
Sun 03:36:28 PM 40.2660 -76.9100 107° East 398 458 18,800 -1,350 Descending FlightAware ADS-B
Sun 03:37:08 PM 40.2410 -76.8060 107° East 398 458 18,000 -565 Descending FlightAware ADS-B
Sun 03:37:53 PM 40.2170 -76.7020 107° East 398 458 18,000  Level FlightAware ADS-B
Sun 03:38:16 PM 40.2015 -76.6352 107° East 399 459 18,000 -778 Level FlightAware ADS-B
Sun 03:38:47 PM 40.1850 -76.5651 107° East 393 452 17,300 -1,645 Descending FlightAware ADS-B
Sun 03:39:18 PM 40.1683 -76.4942 107° East 393 452 16,300 -1,770 Descending FlightAware ADS-B
Sun 03:39:48 PM 40.1524 -76.4270 107° East 386 444 15,500 -1,574 Descending FlightAware ADS-B
Sun 03:40:19 PM 40.1359 -76.3577 107° East 383 441 14,700 -1,111 Descending FlightAware ADS-B
Sun 03:40:42 PM 40.1245 -76.3090 107° East 368 423 14,500 -563 Descending FlightAware ADS-B
Sun 03:40:51 PM 40.1208 -76.2886 103° East 364 419 14,400 -900 Descending FlightAware ADS-B
Sun 03:41:22 PM 40.1157 -76.2232 96° East 352 405 13,900 -1,180 Descending FlightAware ADS-B
Sun 03:41:52 PM 40.1112 -76.1597 95° East 348 400 13,200 -1,672 Descending FlightAware ADS-B
Sun 03:42:23 PM 40.1065 -76.0930 95° East 353 406 12,200 -1,662 Descending FlightAware ADS-B
Sun 03:42:57 PM 40.1017 -76.0237 95° East 345 397 11,400 -1,343 Descending FlightAware ADS-B
Sun 03:43:30 PM 40.0968 -75.9544 95° East 338 389 10,700 -1,355 Descending FlightAware ADS-B
Sun 03:43:59 PM 40.0928 -75.8961 95° East 327 376 10,000 -1,600 Descending FlightAware ADS-B
Sun 03:44:15 PM 40.0907 -75.8665 95° East 325 374 9,500 -1,935 Descending FlightAware ADS-B
Sun 03:44:30 PM 40.0886 -75.8368 95° East 323 372 9,000 -1,935 Descending FlightAware ADS-B
Sun 03:44:46 PM 40.0862 -75.8048 96° East 319 367 8,500 -1,688 Descending FlightAware ADS-B
Sun 03:45:02 PM 40.0840 -75.7750 96° East 315 362 8,100 -1,029 Descending FlightAware ADS-B
Sun 03:45:21 PM 40.0814 -75.7400 96° East 311 358 7,900 -444 Descending FlightAware ADS-B
Sun 03:45:29 PM 40.0805 -75.7238 94° East 314 361 7,900  Level FlightAware ADS-B
Sun 03:45:45 PM 40.0791 -75.6942 94° East 316 364 7,900 -375 Level FlightAware ADS-B
Sun 03:46:01 PM 40.0779 -75.6636 93° East 314 361 7,700 -968 Descending FlightAware ADS-B
Sun 03:46:16 PM 40.0767 -75.6350 93° East 313 360 7,400 -1,313 Descending FlightAware ADS-B
Sun 03:46:33 PM 40.0753 -75.6031 93° East 310 357 7,000 -1,273 Descending FlightAware ADS-B
Sun 03:46:49 PM 40.0739 -75.5741 94° East 305 351 6,700 -1,200 Descending FlightAware ADS-B
Sun 03:47:08 PM 40.0723 -75.5398 93° East 299 344 6,300 -1,235 Descending FlightAware ADS-B
Sun 03:47:23 PM 40.0709 -75.5124 94° East 296 341 6,000 -774 Descending FlightAware ADS-B
Sun 03:47:39 PM 40.0695 -75.4830 94° East 299 344 5,900 -188 Descending FlightAware ADS-B
Sun 03:47:55 PM 40.0681 -75.4552 94° East 301 346 5,900  Level FlightAware ADS-B
Sun 03:48:11 PM 40.0667 -75.4262 94° East 298 343 5,900  Level FlightAware ADS-B
Sun 03:48:29 PM 40.0650 -75.3943 94° East 295 339 5,900  Level FlightAware ADS-B
Sun 03:48:45 PM 40.0618 -75.3660 98° East 298 343 5,900  Level FlightAware ADS-B
Sun 03:49:00 PM 40.0580 -75.3396 101° East 296 341 5,900  Level FlightAware ADS-B
Sun 03:49:16 PM 40.0539 -75.3116 101° East 297 342 5,900  Level FlightAware ADS-B
Sun 03:49:31 PM 40.0501 -75.2855 101° East 283 326 5,900  Level FlightAware ADS-B
Sun 03:49:46 PM 40.0466 -75.2609 101° East 266 306 5,900  Level FlightAware ADS-B
Sun 03:50:01 PM 40.0434 -75.2380 100° East 251 289 5,900  Level FlightAware ADS-B
Sun 03:50:17 PM 40.0403 -75.2156 100° East 231 266 5,900  Level FlightAware ADS-B
Sun 03:50:32 PM 40.0375 -75.1948 100° East 223 257 5,900  Level FlightAware ADS-B
Sun 03:50:48 PM 40.0348 -75.1740 100° East 219 252 5,900  Level FlightAware ADS-B
Sun 03:51:04 PM 40.0320 -75.1534 100° East 219 252 5,900  Level FlightAware ADS-B
Sun 03:51:21 PM 40.0292 -75.1315 99° East 217 250 5,900  Level FlightAware ADS-B
Sun 03:51:32 PM 40.0273 -75.1166 99° East 219 252 5,900  Level FlightAware ADS-B
Sun 03:51:38 PM 40.0261 -75.1094 102° East 219 252 5,900 -667 Level FlightAware ADS-B
Sun 03:51:50 PM 40.0225 -75.0942 107° East 216 249 5,700 -1,071 Descending FlightAware ADS-B
Sun 03:52:06 PM 40.0174 -75.0740 108° East 214 246 5,400 -1,059 Descending FlightAware ADS-B
Sun 03:52:24 PM 40.0116 -75.0524 109° East 212 244 5,100 -1,200 Descending FlightAware ADS-B
Sun 03:52:41 PM 40.0060 -75.0328 110° East 209 241 4,700 -1,440 Descending FlightAware ADS-B
Sun 03:52:49 PM 40.0013 -75.0251 129° Southeast 205 236 4,500 -1,200 Descending FlightAware ADS-B
Sun 03:52:56 PM 39.9965 -75.0196 139° Southeast 198 228 4,400 -545 Descending FlightAware ADS-B
Sun 03:53:11 PM 39.9859 -75.0082 141° Southeast 192 221 4,300 -960 Descending FlightAware ADS-B
Sun 03:53:21 PM 39.9791 -75.0006 139° Southeast 186 214 4,000 -1,091 Descending FlightAware ADS-B
Sun 03:53:33 PM 39.9711 -74.9923 142° Southeast 180 207 3,900 -706 Descending FlightAware ADS-B
Sun 03:53:38 PM 39.9678 -74.9903 155° Southeast 175 201 3,800 -1,333 Descending FlightAware ADS-B
Sun 03:53:42 PM 39.9643 -74.9892 166° South 170 196 3,700 -857 Descending FlightAware ADS-B
Sun 03:53:45 PM 39.9619 -74.9889 175° South 166 191 3,700 -667 Level FlightAware ADS-B
Sun 03:53:51 PM 39.9575 -74.9890 181° South 162 186 3,600 -1,091 Descending FlightAware ADS-B
Sun 03:53:56 PM 39.9541 -74.9896 188° South 158 182 3,500 -1,200 Descending FlightAware ADS-B
Sun 03:54:01 PM 39.9501 -74.9908 193° South 157 181 3,400 -1,412 Descending FlightAware ADS-B
Sun 03:54:13 PM 39.9424 -74.9957 206° Southwest 154 177 3,100 -1,565 Descending FlightAware ADS-B
Sun 03:54:24 PM 39.9366 -75.0021 220° Southwest 156 180 2,800 -1,333 Descending FlightAware ADS-B
Sun 03:54:40 PM 39.9279 -75.0124 222° Southwest 159 183 2,500 -1,043 Descending FlightAware ADS-B
Sun 03:54:47 PM 39.9241 -75.0169 222° Southwest 156 180 2,400 -1,200 Descending FlightAware ADS-B
Sun 03:54:55 PM 39.9202 -75.0232 231° Southwest 157 181 2,200 -1,000 Descending FlightAware ADS-B
Sun 03:55:17 PM 39.9120 -75.0409 239° Southwest 159 183 1,900 -667 Descending FlightAware ADS-B
Sun 03:55:22 PM 39.9108 -75.0455 251° West 156 180 1,900  Level FlightAware ADS-B
Sun 03:55:34 PM 39.9084 -75.0564 254° West 162 186 1,900  Level FlightAware ADS-B
Sun 03:55:45 PM 39.9061 -75.0669 254° West 165 190 1,900  Level FlightAware ADS-B
Sun 03:56:01 PM 39.9032 -75.0818 256° West 165 190 1,900  Level FlightAware ADS-B
Sun 03:56:16 PM 39.9002 -75.0970 256° West 164 189 1,900 -387 Level FlightAware ADS-B
Sun 03:56:32 PM 39.8974 -75.1113 256° West 151 174 1,700 -828 Descending FlightAware ADS-B
Sun 03:56:45 PM 39.8952 -75.1224 256° West 139 160 1,500 -774 Descending FlightAware ADS-B
Sun 03:57:03 PM 39.8924 -75.1365 255° West 136 157 1,300 -706 Descending FlightAware ADS-B
Sun 03:57:19 PM 39.8898 -75.1494 255° West 138 159 1,100 -750 Descending FlightAware ADS-B
Sun 03:57:35 PM 39.8871 -75.1629 255° West 139 160 900 -783 Descending FlightAware ADS-B
Sun 03:57:42 PM 39.8859 -75.1689 255° West 145 167 800 -783 Descending FlightAware ADS-B
Sun 03:57:58 PM 39.8834 -75.1819 256° West 140 161 600 -774 Descending FlightAware ADS-B
Sun 03:58:13 PM 39.8810 -75.1938 255° West 135 155 400 -800 Descending FlightAware ADS-B

Login

Don't have an account? Register now (free) for customized features, flight alerts, and more!